Time;durP1;ratioP1;P1;durP2;ratioP2;P2;SDS_P1;SDS_P2;PMS_P1;PMS_P2;Temp;Humidity;BMP_temperature;BMP_pressure;BME280_temperature;BME280_humidity;BME280_pressure;Samples;Min_cycle;Max_cycle;Signal;HPM_P1;HPM_P2
2023/01/28 00:01:51;;;;;;;36.37;21.90;;;;;;;-0.60;100.00;96662.53;5031068;28;101897;-69
2023/01/28 00:04:20;;;;;;;36.40;20.67;;;;;;;-0.53;100.00;96658.25;5031298;28;104803;-69
2023/01/28 00:06:46;;;;;;;32.83;21.13;;;;;;;-0.45;100.00;96652.94;5030516;28;105493;-69
2023/01/28 00:09:14;;;;;;;35.60;22.30;;;;;;;-0.40;100.00;96658.47;5030552;28;101768;-69
2023/01/28 00:11:45;;;;;;;41.67;24.00;;;;;;;-0.41;100.00;96654.22;5030444;28;105434;-69
2023/01/28 00:14:12;;;;;;;40.60;23.80;;;;;;;-0.38;100.00;96656.50;5031950;28;102914;-69
2023/01/28 00:16:41;;;;;;;39.97;23.90;;;;;;;-0.43;100.00;96655.38;5033763;28;101876;-69
2023/01/28 00:19:08;;;;;;;35.07;21.77;;;;;;;-0.35;100.00;96658.75;5030152;28;105493;-69
2023/01/28 00:21:36;;;;;;;36.43;21.10;;;;;;;-0.41;100.00;96659.44;5031091;28;101784;-69
2023/01/28 00:24:08;;;;;;;34.60;21.53;;;;;;;-0.42;100.00;96657.84;5030917;28;105212;-69
2023/01/28 00:26:39;;;;;;;36.87;22.37;;;;;;;-0.32;100.00;96647.13;5030839;28;105443;-70
2023/01/28 00:29:08;;;;;;;36.30;21.40;;;;;;;-0.40;100.00;96661.06;5030215;28;101781;-70
2023/01/28 00:31:37;;;;;;;37.00;22.27;;;;;;;-0.36;100.00;96663.16;5030566;28;105826;-69
2023/01/28 00:34:06;;;;;;;37.83;22.30;;;;;;;-0.36;100.00;96667.56;5029638;28;105167;-69
2023/01/28 00:36:38;;;;;;;32.53;21.13;;;;;;;-0.40;100.00;96666.28;5030399;28;101866;-69
2023/01/28 00:39:07;;;;;;;34.60;22.00;;;;;;;-0.42;100.00;96657.84;5033810;28;104807;-69
2023/01/28 00:41:36;;;;;;;33.70;20.67;;;;;;;-0.40;100.00;96665.50;5031354;28;102251;-69
2023/01/28 00:44:03;;;;;;;31.10;19.43;;;;;;;-0.55;100.00;96652.38;5030802;28;105365;-69
2023/01/28 00:46:35;;;;;;;35.27;21.47;;;;;;;-0.64;100.00;96657.84;5064767;27;105783;-69
2023/01/28 00:49:02;;;;;;;32.63;21.03;;;;;;;-0.78;100.00;96653.38;5030831;28;101855;-69
2023/01/28 00:51:29;;;;;;;34.33;21.80;;;;;;;-0.88;100.00;96656.19;5031150;28;105166;-70
2023/01/28 00:53:57;;;;;;;46.47;26.50;;;;;;;-0.90;100.00;96663.41;5029922;28;104163;-70
2023/01/28 00:56:24;;;;;;;48.00;26.80;;;;;;;-0.88;100.00;96661.44;5031507;28;101947;-70
2023/01/28 00:58:54;;;;;;;44.20;24.73;;;;;;;-0.85;100.00;96662.88;5031081;28;104296;-69
2023/01/28 01:01:23;;;;;;;49.33;27.40;;;;;;;-0.89;100.00;96664.22;5034174;28;105085;-69
2023/01/28 01:03:56;;;;;;;47.40;26.53;;;;;;;-0.90;100.00;96658.19;5030238;28;105130;-69
2023/01/28 01:06:25;;;;;;;50.93;26.93;;;;;;;-0.90;100.00;96658.19;5029604;28;105579;-69
2023/01/28 01:08:52;;;;;;;47.60;25.80;;;;;;;-0.85;100.00;96660.25;5031003;27;101838;-69
2023/01/28 01:11:19;;;;;;;50.17;27.07;;;;;;;-0.96;100.00;96661.50;5029273;28;105551;-69
2023/01/28 01:13:51;;;;;;;45.17;26.40;;;;;;;-0.98;100.00;96666.09;5028878;28;104231;-70
2023/01/28 01:16:18;;;;;;;44.33;23.93;;;;;;;-0.97;100.00;96659.03;5012734;28;101809;-70
2023/01/28 01:18:45;;;;;;;43.87;23.53;;;;;;;-0.96;100.00;96656.28;5030740;27;103142;-69
2023/01/28 01:21:18;;;;;;;43.30;23.10;;;;;;;-0.88;100.00;96656.19;5028390;27;104321;-64
2023/01/28 01:23:46;;;;;;;42.50;22.67;;;;;;;-0.88;100.00;96656.19;5035294;28;101834;-64
2023/01/28 01:26:13;;;;;;;39.30;22.80;;;;;;;-0.85;100.00;96660.25;5029983;28;105513;-65
2023/01/28 01:28:40;;;;;;;38.77;21.77;;;;;;;-0.92;100.00;96654.94;5029945;28;102021;-65
2023/01/28 01:31:10;;;;;;;36.37;20.97;;;;;;;-0.90;100.00;96662.59;5030056;28;105800;-64
2023/01/28 01:33:41;;;;;;;37.47;20.13;;;;;;;-1.01;100.00;96655.97;5030207;28;105056;-65
2023/01/28 01:36:09;;;;;;;39.57;21.73;;;;;;;-1.02;100.00;96659.56;5028890;28;102077;-65
2023/01/28 01:38:41;;;;;;;35.47;21.80;;;;;;;-0.91;100.00;96667.00;5028903;28;105428;-64
2023/01/28 01:41:17;;;;;;;38.63;20.97;;;;;;;-0.91;100.00;96676.63;5029538;28;105706;-70
2023/01/28 01:43:51;;;;;;;39.50;21.03;;;;;;;-0.92;100.00;96669.78;5033790;28;101874;-69
2023/01/28 01:46:22;;;;;;;39.13;20.93;;;;;;;-0.89;100.00;96674.69;5028714;28;105416;-68
2023/01/28 01:48:52;;;;;;;36.93;21.67;;;;;;;-0.84;100.00;96672.31;5029760;28;102010;-67
2023/01/28 01:51:25;;;;;;;35.80;21.93;;;;;;;-0.85;100.00;96679.38;5064167;27;105248;-69
2023/01/28 01:53:57;;;;;;;36.47;20.67;;;;;;;-0.88;100.00;96679.69;5062674;27;104389;-69
2023/01/28 01:56:30;;;;;;;39.67;20.53;;;;;;;-0.85;100.00;96683.75;5031482;27;102483;-68
2023/01/28 01:58:59;;;;;;;35.40;21.30;;;;;;;-0.80;100.00;96687.50;5029460;28;105632;-69
2023/01/28 02:01:31;;;;;;;38.87;21.50;;;;;;;-0.87;100.00;96688.34;5030542;27;103029;-69
2023/01/28 02:04:04;;;;;;;35.37;19.80;;;;;;;-0.86;100.00;96679.53;5028579;28;101881;-69
2023/01/28 02:06:32;;;;;;;36.07;20.67;;;;;;;-0.83;100.00;96681.81;5031391;28;103992;-67
2023/01/28 02:09:02;;;;;;;33.33;19.70;;;;;;;-0.84;100.00;96685.38;5063150;27;102014;-67
2023/01/28 02:11:31;;;;;;;35.10;19.90;;;;;;;-0.80;100.00;96682.28;5028785;28;105313;-68
2023/01/28 02:14:12;;;;;;;36.43;21.30;;;;;;;-0.77;100.00;96688.94;5029776;27;102948;-68
2023/01/28 02:16:40;;;;;;;35.77;21.03;;;;;;;-0.80;100.00;96690.09;5028632;28;101823;-68
2023/01/28 02:19:12;;;;;;;33.33;20.57;;;;;;;-0.82;100.00;96693.88;5028605;28;104061;-68
2023/01/28 02:22:09;;;;;;;32.40;19.83;;;;;;;-0.87;100.00;96688.34;5027585;28;106223;-68
2023/01/28 02:25:03;;;;;;;32.03;19.67;;;;;;;-0.87;100.00;96693.56;5028545;28;101877;-68
2023/01/28 02:27:39;;;;;;;35.77;21.03;;;;;;;-0.82;100.00;96689.44;4975368;28;105389;-68
2023/01/28 02:30:18;;;;;;;33.27;19.63;;;;;;;-0.84;100.00;96686.22;5031715;28;105397;-68
2023/01/28 02:32:55;;;;;;;34.60;20.50;;;;;;;-0.87;100.00;96689.19;5028426;28;106341;-70
2023/01/28 02:35:31;;;;;;;34.23;20.00;;;;;;;-0.76;100.00;96690.56;5027560;28;105608;-70
2023/01/28 02:38:04;;;;;;;33.77;19.93;;;;;;;-0.85;100.00;96691.59;5028752;28;102242;-69
2023/01/28 02:41:00;;;;;;;31.90;19.97;;;;;;;-0.87;100.00;96696.19;5029111;28;105545;-69
2023/01/28 02:43:32;;;;;;;32.13;20.10;;;;;;;-0.88;100.00;96691.97;5027797;28;105817;-68
2023/01/28 02:48:54;;;;;;;30.60;19.97;;;;;;;-0.89;100.00;96692.94;5029598;28;105318;-68
2023/01/28 02:51:31;;;;;;;33.63;20.27;;;;;;;-0.89;100.00;96691.13;5028845;28;105234;-68
2023/01/28 02:54:06;;;;;;;34.53;19.30;;;;;;;-0.91;100.00;96698.34;5031396;28;102220;-68
2023/01/28 02:56:43;;;;;;;34.60;20.90;;;;;;;-0.95;100.00;96694.44;5028790;28;105850;-69
2023/01/28 02:59:35;;;;;;;31.53;19.57;;;;;;;-0.98;100.00;96696.56;5030723;28;101870;-70
2023/01/28 03:02:23;;;;;;;30.27;19.73;;;;;;;-0.97;100.00;96687.75;5027884;28;105214;-69
2023/01/28 03:04:58;;;;;;;33.07;20.43;;;;;;;-0.98;100.00;96694.78;5027342;28;105450;-70
2023/01/28 03:07:30;;;;;;;33.40;19.30;;;;;;;-0.98;100.00;96694.78;5027888;28;101758;-70
2023/01/28 03:10:04;;;;;;;32.90;19.70;;;;;;;-0.98;100.00;96697.41;5028273;28;105131;-70
2023/01/28 03:38:21;;;;;;;31.40;18.77;;;;;;;-0.87;100.00;96715.28;5027448;28;101844;-69
2023/01/28 03:40:51;;;;;;;31.97;18.83;;;;;;;-0.84;100.00;96714.91;5028223;28;105404;-70
2023/01/28 03:43:20;;;;;;;31.93;18.60;;;;;;;-0.90;100.00;96720.00;5030825;27;102157;-70
2023/01/28 03:45:50;;;;;;;30.93;19.23;;;;;;;-0.89;100.00;96727.66;5031501;27;104806;-70
2023/01/28 03:48:18;;;;;;;31.97;19.07;;;;;;;-0.88;100.00;96731.91;5030820;28;105508;-68
2023/01/28 03:50:49;;;;;;;30.03;17.87;;;;;;;-0.90;100.00;96720.84;5031210;28;102074;-68
2023/01/28 03:53:19;;;;;;;30.00;18.30;;;;;;;-0.93;100.00;96729.00;5031151;28;105302;-68
2023/01/28 03:55:55;;;;;;;31.83;18.47;;;;;;;-0.87;100.00;96719.69;5030967;28;105578;-69
2023/01/28 03:58:25;;;;;;;30.23;17.87;;;;;;;-0.90;100.00;96726.06;5031026;28;101817;-69
2023/01/28 04:00:54;;;;;;;27.43;17.10;;;;;;;-0.90;100.00;96725.22;5064874;27;105486;-69
2023/01/28 04:03:22;;;;;;;29.40;17.23;;;;;;;-0.91;100.00;96723.59;5033504;28;105193;-69
2023/01/28 04:06:04;;;;;;;25.37;16.90;;;;;;;-0.91;100.00;96727.03;5030626;28;104862;-70
2023/01/28 04:09:04;;;;;;;28.53;17.80;;;;;;;-0.86;100.00;96721.28;4993509;27;103130;-70
2023/01/28 04:12:07;;;;;;;29.07;17.37;;;;;;;-0.81;100.00;96722.41;5030160;28;103103;-70
2023/01/28 04:14:41;;;;;;;28.83;17.27;;;;;;;-0.78;100.00;96722.06;5031104;28;105010;-70
2023/01/28 04:17:15;;;;;;;28.30;16.73;;;;;;;-0.78;100.00;96727.28;5030080;28;105617;-70
2023/01/28 04:19:44;;;;;;;26.13;16.13;;;;;;;-0.78;100.00;96729.09;5029968;28;101915;-70
2023/01/28 04:22:13;;;;;;;26.47;16.73;;;;;;;-0.80;100.00;96726.66;5030103;28;105188;-70
2023/01/28 04:24:42;;;;;;;28.63;17.57;;;;;;;-0.82;100.00;96736.44;5029660;28;105621;-70
2023/01/28 04:27:09;;;;;;;27.90;16.77;;;;;;;-0.86;100.00;96732.56;5033598;28;102166;-70
2023/01/28 04:29:36;;;;;;;26.93;16.60;;;;;;;-0.87;100.00;96736.16;5064001;27;105392;-73
2023/01/28 04:32:23;;;;;;;27.10;16.30;;;;;;;-0.86;100.00;96736.97;5031826;28;102149;-76
2023/01/28 04:35:23;;;;;;;27.07;16.40;;;;;;;-0.92;100.00;96737.66;5026643;27;103793;-76
2023/01/28 04:38:17;;;;;;;26.53;17.10;;;;;;;-0.91;100.00;96744.50;5031091;27;101872;-76
2023/01/28 04:40:55;;;;;;;28.60;16.83;;;;;;;-0.91;100.00;96742.69;5031002;28;101934;-75
2023/01/28 04:43:33;;;;;;;27.60;16.53;;;;;;;-0.94;100.00;96750.84;5030663;28;104959;-75
2023/01/28 04:46:23;;;;;;;25.53;15.60;;;;;;;-0.90;100.00;96746.94;5024280;28;102853;-76
2023/01/28 04:49:03;;;;;;;29.47;16.37;;;;;;;-0.95;100.00;96751.84;5030711;28;101779;-76
2023/01/28 04:51:39;;;;;;;27.00;15.90;;;;;;;-0.84;100.00;96754.06;5033303;28;105499;-76
2023/01/28 04:54:15;;;;;;;26.80;15.70;;;;;;;-0.89;100.00;96759.00;5029842;28;101925;-76
2023/01/28 04:56:44;;;;;;;27.60;16.87;;;;;;;-0.89;100.00;96758.19;5030718;27;105292;-71
2023/01/28 04:59:11;;;;;;;26.77;16.40;;;;;;;-0.86;100.00;96763.88;5029446;28;105939;-71
2023/01/28 05:01:39;;;;;;;26.33;16.07;;;;;;;-0.98;100.00;96765.25;5029521;28;101826;-71
2023/01/28 05:04:07;;;;;;;29.80;17.00;;;;;;;-0.98;100.00;96761.81;5029708;28;105050;-71
2023/01/28 05:06:40;;;;;;;25.60;17.10;;;;;;;-0.96;100.00;96762.47;5029213;28;104093;-71
2023/01/28 05:09:11;;;;;;;28.30;16.83;;;;;;;-0.94;100.00;96769.13;5029920;28;101790;-71
2023/01/28 05:11:41;;;;;;;29.20;17.53;;;;;;;-0.91;100.00;96768.81;5030165;28;105000;-71
2023/01/28 05:14:09;;;;;;;29.50;17.17;;;;;;;-0.84;100.00;96771.53;5033201;28;105238;-71
2023/01/28 05:16:57;;;;;;;30.50;17.17;;;;;;;-0.95;100.00;96764.91;5031015;27;102783;-65
2023/01/28 05:19:26;;;;;;;30.70;18.50;;;;;;;-0.88;100.00;96770.25;5028980;28;105590;-65
2023/01/28 05:21:56;;;;;;;30.03;18.13;;;;;;;-0.75;100.00;96771.34;5029125;28;101826;-65
2023/01/28 05:24:32;;;;;;;29.23;17.27;;;;;;;-0.79;100.00;96774.44;5029855;28;104799;-66
2023/01/28 05:27:01;;;;;;;32.13;19.23;;;;;;;-0.71;100.00;96774.41;5029142;28;105548;-66
2023/01/28 05:29:28;;;;;;;29.70;17.33;;;;;;;-0.73;100.00;96777.19;5029254;28;101859;-66
2023/01/28 05:31:55;;;;;;;27.67;16.97;;;;;;;-0.76;100.00;96779.34;5028925;28;104295;-66
2023/01/28 05:34:22;;;;;;;30.50;17.00;;;;;;;-0.83;100.00;96773.19;5029158;28;105453;-66
2023/01/28 05:36:51;;;;;;;25.47;15.77;;;;;;;-0.88;100.00;96778.88;5032210;28;102026;-66
2023/01/28 05:39:34;;;;;;;29.30;16.70;;;;;;;-0.89;100.00;96787.72;5028526;28;105486;-69
2023/01/28 05:42:03;;;;;;;26.27;15.33;;;;;;;-0.91;100.00;96787.06;5028807;28;101977;-68
2023/01/28 05:44:32;;;;;;;27.60;16.13;;;;;;;-0.94;100.00;96792.63;5029471;28;103755;-69
2023/01/28 05:47:09;;;;;;;27.50;16.77;;;;;;;-0.97;100.00;96795.59;5029467;28;105200;-70
2023/01/28 05:49:59;;;;;;;28.20;16.10;;;;;;;-0.93;100.00;96802.06;5021345;28;102036;-70
2023/01/28 05:52:56;;;;;;;28.43;16.43;;;;;;;-0.97;100.00;96803.41;5024216;28;102237;-68
2023/01/28 05:55:28;;;;;;;28.83;16.43;;;;;;;-0.96;100.00;96799.81;5028474;28;103274;-68
2023/01/28 05:57:57;;;;;;;29.10;17.50;;;;;;;-0.94;100.00;96808.28;5032984;28;102135;-68
2023/01/28 06:00:25;;;;;;;30.77;17.37;;;;;;;-0.95;100.00;96811.06;5029764;27;103023;-68
2023/01/28 06:02:55;;;;;;;27.20;16.80;;;;;;;-0.94;100.00;96805.66;5028266;28;101945;-68
2023/01/28 06:05:24;;;;;;;30.90;17.33;;;;;;;-0.87;100.00;96813.66;5029256;28;105167;-68
2023/01/28 06:07:54;;;;;;;28.87;16.97;;;;;;;-0.88;100.00;96817.25;5011273;28;106050;-71
2023/01/28 06:10:21;;;;;;;29.93;17.63;;;;;;;-0.92;100.00;96814.16;5028542;28;102485;-71
2023/01/28 06:12:48;;;;;;;30.43;17.63;;;;;;;-0.87;100.00;96819.69;5028406;28;105523;-71
2023/01/28 06:15:36;;;;;;;31.33;18.33;;;;;;;-0.89;100.00;96816.41;5029907;28;101800;-71
2023/01/28 06:18:16;;;;;;;32.30;17.70;;;;;;;-0.83;100.00;96809.72;5028629;28;101896;-71
2023/01/28 06:20:43;;;;;;;27.53;17.30;;;;;;;-0.80;100.00;96819.81;5031390;28;104182;-69
2023/01/28 06:23:11;;;;;;;30.17;17.00;;;;;;;-0.84;100.00;96815.91;5028035;28;101948;-76
2023/01/28 06:25:39;;;;;;;30.57;17.50;;;;;;;-0.89;100.00;96818.25;5028312;28;105122;-73
2023/01/28 06:28:10;;;;;;;26.47;16.83;;;;;;;-0.89;100.00;96828.69;5028347;28;105203;-67
2023/01/28 06:30:38;;;;;;;36.60;20.57;;;;;;;-0.87;100.00;96831.91;5028407;28;102009;-65
2023/01/28 06:33:06;;;;;;;53.47;28.60;;;;;;;-0.85;100.00;96838.59;5028357;28;105361;-68
2023/01/28 06:35:35;;;;;;;49.83;26.70;;;;;;;-0.86;100.00;96841.38;5061803;27;106936;-68
2023/01/28 06:38:03;;;;;;;36.23;20.87;;;;;;;-0.87;100.00;96842.38;5028795;28;101881;-65
2023/01/28 06:40:30;;;;;;;32.93;20.43;;;;;;;-0.94;100.00;96842.22;5028280;28;105514;-67
2023/01/28 06:43:16;;;;;;;34.27;20.53;;;;;;;-0.94;100.00;96839.59;5014343;28;105558;-70
2023/01/28 06:45:45;;;;;;;32.77;19.70;;;;;;;-0.82;100.00;96851.31;5063486;27;105683;-66
2023/01/28 06:48:12;;;;;;;31.60;18.90;;;;;;;-0.84;100.00;96849.84;5029190;27;103039;-67
2023/01/28 06:50:40;;;;;;;29.83;18.10;;;;;;;-0.83;100.00;96847.06;5029296;28;102003;-65
2023/01/28 06:53:07;;;;;;;31.37;17.97;;;;;;;-0.84;100.00;96845.44;5028955;28;104894;-67
2023/01/28 06:55:36;;;;;;;30.07;18.53;;;;;;;-0.80;100.00;96848.53;5028371;28;105405;-67
2023/01/28 06:58:04;;;;;;;28.13;17.00;;;;;;;-0.79;100.00;96848.38;5029885;27;102140;-66
2023/01/28 07:00:31;;;;;;;28.57;17.87;;;;;;;-0.67;100.00;96847.00;5028977;28;105457;-66
2023/01/28 07:03:02;;;;;;;29.27;17.80;;;;;;;-0.71;100.00;96852.75;5027449;28;105523;-66
2023/01/28 07:05:30;;;;;;;31.43;18.73;;;;;;;-0.69;100.00;96859.44;5031945;28;101885;-66
2023/01/28 07:07:57;;;;;;;28.10;17.43;;;;;;;-0.79;100.00;96855.38;5027418;28;106423;-66
2023/01/28 07:10:24;;;;;;;29.53;18.13;;;;;;;-0.79;100.00;96858.81;5030004;27;101736;-66
2023/01/28 07:12:57;;;;;;;28.27;17.00;;;;;;;-0.76;100.00;96849.81;5028506;28;105392;-66
2023/01/28 07:15:24;;;;;;;34.70;19.10;;;;;;;-0.67;100.00;96862.69;5028000;28;105808;-66
2023/01/28 07:17:52;;;;;;;27.90;17.33;;;;;;;-0.78;100.00;96860.44;5062268;27;101994;-66
2023/01/28 07:20:23;;;;;;;29.40;18.80;;;;;;;-0.79;100.00;96866.66;5032410;27;102834;-66
2023/01/28 07:22:52;;;;;;;29.93;18.00;;;;;;;-0.81;100.00;96868.63;5031057;28;105491;-66
2023/01/28 07:25:19;;;;;;;27.27;17.63;;;;;;;-0.84;100.00;96870.72;5033085;28;102175;-66
2023/01/28 07:27:48;;;;;;;32.33;18.87;;;;;;;-0.82;100.00;96874.81;5034640;28;104243;-66
2023/01/28 07:30:15;;;;;;;34.70;21.83;;;;;;;-0.90;100.00;96874.84;5031298;28;101833;-66
2023/01/28 07:32:45;;;;;;;36.40;21.33;;;;;;;-1.01;100.00;96879.59;5031609;28;105208;-66
2023/01/28 07:35:12;;;;;;;32.40;20.20;;;;;;;-0.91;100.00;96881.03;5032487;27;102909;-66
2023/01/28 07:37:41;;;;;;;32.87;20.00;;;;;;;-0.89;100.00;96888.72;5030974;28;102049;-66
2023/01/28 07:40:09;;;;;;;29.50;18.43;;;;;;;-0.90;100.00;96887.88;5065296;27;105490;-66
2023/01/28 07:42:43;;;;;;;29.33;18.40;;;;;;;-0.92;100.00;96884.66;5031939;27;102726;-66
2023/01/28 07:45:12;;;;;;;30.47;18.60;;;;;;;-0.83;100.00;96895.88;5031272;28;101774;-66
2023/01/28 07:47:39;;;;;;;31.17;18.03;;;;;;;-0.82;100.00;96895.69;5031213;28;104418;-66
2023/01/28 07:50:07;;;;;;;31.17;18.60;;;;;;;-0.74;100.00;96895.69;5033988;28;105575;-66
2023/01/28 07:52:37;;;;;;;29.73;18.57;;;;;;;-0.77;100.00;96900.41;5030759;28;105345;-66
2023/01/28 07:55:07;;;;;;;33.33;18.73;;;;;;;-0.74;100.00;96898.28;5032186;28;103204;-66
2023/01/28 07:57:34;;;;;;;32.40;18.60;;;;;;;-0.73;100.00;96897.31;5031211;28;101905;-66
2023/01/28 08:00:01;;;;;;;32.97;21.57;;;;;;;-0.72;100.00;96904.16;5030949;28;105426;-66
2023/01/28 08:02:35;;;;;;;35.13;21.83;;;;;;;-0.76;100.00;96907.28;5030515;28;103989;-66
2023/01/28 08:05:03;;;;;;;38.67;23.70;;;;;;;-0.69;100.00;96909.03;5030955;28;101846;-70
2023/01/28 08:07:29;;;;;;;31.83;19.13;;;;;;;-0.57;100.00;96910.31;5030660;28;104564;-69
2023/01/28 08:09:56;;;;;;;31.87;19.70;;;;;;;-0.52;100.00;96913.22;5033575;28;105309;-66
2023/01/28 08:12:52;;;;;;;30.33;19.00;;;;;;;-0.44;100.00;96917.59;5030670;28;105008;-70
2023/01/28 08:15:19;;;;;;;32.57;19.20;;;;;;;-0.46;100.00;96917.75;5030268;28;105242;-68
2023/01/28 08:17:46;;;;;;;29.67;19.70;;;;;;;-0.69;100.00;96922.09;5030423;28;102014;-69
2023/01/28 08:20:14;;;;;;;34.90;19.90;;;;;;;-0.72;100.00;96930.25;5030412;28;105653;-67
2023/01/28 08:22:42;;;;;;;34.63;20.87;;;;;;;-0.82;100.00;96929.63;5029605;28;103916;-65
2023/01/28 08:25:10;;;;;;;36.07;21.37;;;;;;;-0.80;100.00;96935.50;5030569;28;101895;-66
2023/01/28 08:27:37;;;;;;;34.97;20.13;;;;;;;-0.80;100.00;96940.72;5030390;28;104206;-72
2023/01/28 08:30:08;;;;;;;32.33;20.93;;;;;;;-0.77;100.00;96935.16;5029389;27;105489;-71
2023/01/28 08:32:40;;;;;;;37.53;20.93;;;;;;;-0.64;100.00;96935.47;5033493;28;101946;-71
2023/01/28 08:35:07;;;;;;;37.27;21.30;;;;;;;-0.58;100.00;96944.41;5029783;28;105649;-71
2023/01/28 08:37:34;;;;;;;30.60;20.07;;;;;;;-0.78;100.00;96946.59;5029838;28;102244;-71
2023/01/28 08:40:01;;;;;;;37.83;21.03;;;;;;;-0.78;100.00;96948.41;5030120;28;105845;-71
2023/01/28 08:42:30;;;;;;;36.80;21.60;;;;;;;-0.64;100.00;96951.13;5029515;28;105779;-71
2023/01/28 08:44:57;;;;;;;35.40;20.50;;;;;;;-0.56;100.00;96951.09;5030243;28;101781;-71
2023/01/28 08:47:25;;;;;;;33.53;22.20;;;;;;;-0.45;100.00;96949.94;5030008;28;105400;-71
2023/01/28 08:49:52;;;;;;;31.17;19.80;;;;;;;-0.44;100.00;96952.38;5029402;28;105812;-71
2023/01/28 08:52:36;;;;;;;31.47;19.07;;;;;;;-0.67;100.00;96951.47;5030289;28;101886;-71
2023/01/28 08:55:03;;;;;;;32.57;18.93;;;;;;;-0.65;100.00;96949.50;5033334;28;105420;-71
2023/01/28 08:57:30;;;;;;;32.50;19.37;;;;;;;-0.53;100.00;96947.34;5030587;28;101858;-71
2023/01/28 08:59:57;;;;;;;30.97;18.57;;;;;;;-0.54;100.00;96951.78;5029832;28;105273;-71
2023/01/28 09:02:46;;;;;;;33.60;19.93;;;;;;;-0.60;100.00;96952.41;5030443;28;103212;-71
2023/01/28 09:05:13;;;;;;;29.40;18.60;;;;;;;-0.49;100.00;96949.47;5029811;28;101842;-71
2023/01/28 09:07:41;;;;;;;32.03;20.27;;;;;;;-0.55;100.00;96954.53;5029851;28;104818;-71
2023/01/28 09:10:09;;;;;;;31.40;19.47;;;;;;;-0.60;100.00;96952.41;5028952;28;105163;-71
2023/01/28 09:12:40;;;;;;;30.10;18.50;;;;;;;-0.57;100.00;96946.03;5029654;28;101870;-71
2023/01/28 09:15:09;;;;;;;31.87;19.37;;;;;;;-0.33;100.00;96952.00;5029772;28;105221;-70
2023/01/28 09:17:36;;;;;;;33.57;19.93;;;;;;;-0.47;100.00;96952.72;5032450;28;105480;-70
2023/01/28 09:20:07;;;;;;;31.13;18.97;;;;;;;-0.62;100.00;96954.38;5029471;28;105886;-71
2023/01/28 09:22:36;;;;;;;33.53;19.30;;;;;;;-0.34;100.00;96963.44;5030161;28;102975;-71
2023/01/28 09:25:03;;;;;;;33.50;20.63;;;;;;;-0.16;100.00;96962.22;5029736;28;101840;-71
2023/01/28 09:27:30;;;;;;;29.83;18.23;;;;;;;-0.03;100.00;96959.06;5029499;28;105780;-71
2023/01/28 09:29:57;;;;;;;32.47;18.93;;;;;;;-0.14;100.00;96959.44;5028714;28;105708;-71
2023/01/28 09:33:00;;;;;;;30.43;19.20;;;;;;;-0.29;100.00;96952.50;5029604;28;101892;-71
2023/01/28 09:35:30;;;;;;;33.33;19.77;;;;;;;-0.35;100.00;96961.81;5029889;28;105506;-71
2023/01/28 09:37:58;;;;;;;30.57;19.53;;;;;;;-0.12;100.00;96955.66;5030509;27;101809;-71
2023/01/28 09:40:34;;;;;;;32.33;20.47;;;;;;;0.01;100.00;96968.19;5032634;28;102007;-71
2023/01/28 09:43:33;;;;;;;30.87;19.90;;;;;;;-0.07;100.00;96970.84;5028137;27;105060;-71
2023/01/28 09:46:05;;;;;;;30.60;20.13;;;;;;;0.29;100.00;96970.13;5013304;28;101853;-71
2023/01/28 09:48:36;;;;;;;30.83;19.23;;;;;;;0.47;100.00;96964.66;5029266;28;105347;-71
2023/01/28 09:51:09;;;;;;;31.73;18.93;;;;;;;0.73;100.00;96959.88;5028816;28;105509;-71
2023/01/28 09:54:00;;;;;;;31.47;18.70;;;;;;;0.62;100.00;96962.91;5028831;28;101813;-71
2023/01/28 09:56:32;;;;;;;29.23;19.07;;;;;;;0.79;100.00;96964.41;5028965;28;104353;-70
2023/01/28 09:59:19;;;;;;;33.07;20.43;;;;;;;0.93;100.00;96963.66;5028388;28;105766;-70
2023/01/28 10:01:54;;;;;;;32.80;20.73;;;;;;;0.89;100.00;96959.75;5029213;28;102096;-70
2023/01/28 10:04:36;;;;;;;29.93;19.53;;;;;;;1.20;100.00;96960.47;5031648;28;105777;-70
2023/01/28 10:07:18;;;;;;;29.40;18.30;;;;;;;1.00;100.00;96957.50;5028973;28;102097;-70
2023/01/28 10:09:51;;;;;;;27.33;16.87;;;;;;;0.47;100.00;96948.94;5028214;28;105123;-70
2023/01/28 10:12:56;;;;;;;25.67;18.17;;;;;;;0.82;100.00;96948.38;5028399;28;105610;-70
2023/01/28 10:15:52;;;;;;;27.10;18.03;;;;;;;1.01;100.00;96947.84;5028654;28;101810;-70
2023/01/28 10:18:29;;;;;;;25.20;16.73;;;;;;;1.24;100.00;96938.13;5029976;28;102535;-70
2023/01/28 10:21:06;;;;;;;24.80;17.23;;;;;;;1.35;100.00;96933.28;5027909;28;105705;-70
2023/01/28 10:24:28;;;;;;;27.03;16.93;;;;;;;0.88;100.00;96931.94;5028413;28;102052;-70
2023/01/28 10:26:57;;;;;;;22.67;15.67;;;;;;;0.72;100.00;96930.25;5031551;28;105290;-70
2023/01/28 10:29:27;;;;;;;25.00;16.27;;;;;;;0.66;100.00;96933.59;5028218;28;101996;-70
2023/01/28 10:31:56;;;;;;;25.93;16.50;;;;;;;0.86;100.00;96928.66;5028379;28;105370;-70
2023/01/28 10:34:30;;;;;;;25.33;17.43;;;;;;;0.74;100.00;96930.09;5027819;28;105589;-70
2023/01/28 10:36:57;;;;;;;27.43;17.43;;;;;;;0.92;100.00;96928.78;5027628;28;101904;-70
2023/01/28 10:39:26;;;;;;;25.33;16.97;;;;;;;1.03;100.00;96938.00;5028410;28;105284;-72
2023/01/28 10:41:53;;;;;;;24.77;16.70;;;;;;;1.26;100.00;96934.34;5029015;28;103348;-72
2023/01/28 10:44:32;;;;;;;23.53;15.67;;;;;;;1.07;100.00;96929.63;5029357;27;102297;-72
2023/01/28 10:47:03;;;;;;;24.03;16.17;;;;;;;1.37;100.00;96927.88;5029872;27;102892;-72
2023/01/28 10:49:32;;;;;;;24.23;16.40;;;;;;;1.56;100.00;96922.06;5031279;28;105648;-72
2023/01/28 10:51:59;;;;;;;22.53;15.77;;;;;;;1.70;100.00;96919.44;5028216;28;103969;-72
2023/01/28 10:54:59;;;;;;;22.20;15.47;;;;;;;1.91;100.00;96919.50;5030505;28;105563;-72
2023/01/28 10:57:26;;;;;;;23.77;16.27;;;;;;;1.79;100.00;96912.28;5031866;28;101818;-72
2023/01/28 10:59:54;;;;;;;24.43;16.40;;;;;;;1.67;100.00;96918.97;5033370;27;102816;-72
2023/01/28 11:02:28;;;;;;;25.90;17.00;;;;;;;1.46;100.00;96917.09;5031142;28;105532;-72
2023/01/28 11:05:04;;;;;;;25.37;17.23;;;;;;;1.52;100.00;96915.56;5032584;28;101923;-72
2023/01/28 11:07:32;;;;;;;24.90;17.10;;;;;;;1.68;100.00;96910.13;5031440;28;105186;-72
2023/01/28 11:09:59;;;;;;;26.03;16.77;;;;;;;1.93;100.00;96914.91;5031134;28;104391;-72
2023/01/28 11:12:33;;;;;;;22.87;15.97;;;;;;;2.31;100.00;96918.13;5035053;28;101872;-72
2023/01/28 11:15:03;;;;;;;26.77;18.13;;;;;;;1.94;100.00;96910.44;5031119;28;105425;-72
2023/01/28 11:17:34;;;;;;;25.03;17.87;;;;;;;1.99;100.00;96913.31;5031635;28;102027;-72
2023/01/28 11:20:10;;;;;;;25.53;18.13;;;;;;;2.07;100.00;96913.22;5032859;27;102894;-72
2023/01/28 11:23:05;;;;;;;24.97;17.40;;;;;;;2.02;100.00;96912.97;5030726;28;105207;-72
2023/01/28 11:25:34;;;;;;;23.63;16.07;;;;;;;2.19;100.00;96917.78;5031158;28;101939;-72
2023/01/28 11:28:05;;;;;;;24.03;16.80;;;;;;;1.47;100.00;96916.09;5031267;28;105127;-72
2023/01/28 11:30:39;;;;;;;22.00;16.17;;;;;;;1.86;100.00;96921.06;5030713;28;105450;-72
2023/01/28 11:33:29;;;;;;;22.17;16.20;;;;;;;2.07;100.00;96914.03;5027239;28;101748;-72
2023/01/28 11:35:58;;;;;;;22.70;16.43;;;;;;;1.88;100.00;96906.75;5013267;28;105939;-72
2023/01/28 11:38:26;;;;;;;23.30;16.30;;;;;;;1.82;100.00;96925.03;5011224;28;101930;-72
2023/01/28 11:40:55;;;;;;;28.27;20.13;;;;;;;1.75;100.00;96917.06;5010648;28;105218;-72
2023/01/28 11:43:36;;;;;;;25.07;17.13;;;;;;;1.43;100.00;96927.94;5026803;28;105600;-72
2023/01/28 11:46:35;;;;;;;23.27;16.13;;;;;;;1.23;100.00;96926.03;5010702;28;101912;-72
2023/01/28 11:49:09;;;;;;;24.13;17.00;;;;;;;1.09;100.00;96924.22;5012260;28;102849;-71
2023/01/28 11:51:42;;;;;;;24.57;16.63;;;;;;;1.28;100.00;96924.50;5011565;28;103030;-71
2023/01/28 11:54:25;;;;;;;24.57;16.37;;;;;;;1.18;100.00;96920.50;5012066;28;101669;-71
2023/01/28 11:57:17;;;;;;;25.53;17.53;;;;;;;1.11;100.00;96927.47;5027455;28;105230;-72